sensor_id;sensor_type;location;lat;lon;timestamp;P1;durP1;ratioP1;P2;durP2;ratioP2
56269;SDS011;42176;43.240;27.880;2023-03-01T00:00:37;4.80;;;2.05;;
56269;SDS011;42176;43.240;27.880;2023-03-01T00:03:03;4.43;;;2.85;;
56269;SDS011;42176;43.240;27.880;2023-03-01T00:05:29;6.38;;;2.67;;
56269;SDS011;42176;43.240;27.880;2023-03-01T00:07:54;12.25;;;3.58;;
56269;SDS011;42176;43.240;27.880;2023-03-01T00:10:19;7.55;;;5.28;;
56269;SDS011;42176;43.240;27.880;2023-03-01T00:12:45;3.15;;;2.10;;
56269;SDS011;42176;43.240;27.880;2023-03-01T00:15:10;5.85;;;3.33;;
56269;SDS011;42176;43.240;27.880;2023-03-01T00:17:36;7.03;;;2.65;;
56269;SDS011;42176;43.240;27.880;2023-03-01T00:20:02;4.72;;;3.75;;
56269;SDS011;42176;43.240;27.880;2023-03-01T00:22:28;3.10;;;1.60;;
56269;SDS011;42176;43.240;27.880;2023-03-01T00:24:53;5.07;;;2.33;;
56269;SDS011;42176;43.240;27.880;2023-03-01T00:27:19;3.85;;;2.58;;
56269;SDS011;42176;43.240;27.880;2023-03-01T00:29:44;6.28;;;4.13;;
56269;SDS011;42176;43.240;27.880;2023-03-01T00:32:10;4.18;;;1.73;;
56269;SDS011;42176;43.240;27.880;2023-03-01T00:34:35;4.72;;;2.20;;
56269;SDS011;42176;43.240;27.880;2023-03-01T00:37:01;7.43;;;2.83;;
56269;SDS011;42176;43.240;27.880;2023-03-01T00:39:30;3.47;;;1.80;;
56269;SDS011;42176;43.240;27.880;2023-03-01T00:41:57;3.88;;;2.38;;
56269;SDS011;42176;43.240;27.880;2023-03-01T00:44:22;6.40;;;3.65;;
56269;SDS011;42176;43.240;27.880;2023-03-01T00:46:48;4.45;;;2.92;;
56269;SDS011;42176;43.240;27.880;2023-03-01T00:49:13;8.57;;;3.85;;
56269;SDS011;42176;43.240;27.880;2023-03-01T00:51:39;5.20;;;2.55;;
56269;SDS011;42176;43.240;27.880;2023-03-01T00:54:07;6.97;;;3.67;;
56269;SDS011;42176;43.240;27.880;2023-03-01T00:56:33;5.47;;;2.72;;
56269;SDS011;42176;43.240;27.880;2023-03-01T00:58:59;8.50;;;3.72;;
56269;SDS011;42176;43.240;27.880;2023-03-01T01:01:25;6.50;;;2.40;;
56269;SDS011;42176;43.240;27.880;2023-03-01T01:03:57;5.07;;;3.17;;
56269;SDS011;42176;43.240;27.880;2023-03-01T01:06:29;4.68;;;2.85;;
56269;SDS011;42176;43.240;27.880;2023-03-01T01:08:56;3.45;;;2.65;;
56269;SDS011;42176;43.240;27.880;2023-03-01T01:11:24;7.55;;;3.28;;
56269;SDS011;42176;43.240;27.880;2023-03-01T01:13:52;4.05;;;2.53;;
56269;SDS011;42176;43.240;27.880;2023-03-01T01:16:18;2.97;;;2.40;;
56269;SDS011;42176;43.240;27.880;2023-03-01T01:18:45;6.25;;;2.78;;
56269;SDS011;42176;43.240;27.880;2023-03-01T01:21:12;4.13;;;2.33;;
56269;SDS011;42176;43.240;27.880;2023-03-01T01:23:39;5.60;;;3.30;;
56269;SDS011;42176;43.240;27.880;2023-03-01T01:26:06;9.00;;;5.22;;
56269;SDS011;42176;43.240;27.880;2023-03-01T01:28:36;9.52;;;4.82;;
56269;SDS011;42176;43.240;27.880;2023-03-01T01:31:02;6.07;;;3.38;;
56269;SDS011;42176;43.240;27.880;2023-03-01T01:33:29;6.90;;;4.07;;
56269;SDS011;42176;43.240;27.880;2023-03-01T01:35:54;7.47;;;4.43;;
56269;SDS011;42176;43.240;27.880;2023-03-01T01:38:20;5.82;;;3.88;;
56269;SDS011;42176;43.240;27.880;2023-03-01T01:40:46;11.20;;;4.53;;
56269;SDS011;42176;43.240;27.880;2023-03-01T01:43:17;13.77;;;6.13;;
56269;SDS011;42176;43.240;27.880;2023-03-01T01:45:44;10.38;;;4.00;;
56269;SDS011;42176;43.240;27.880;2023-03-01T01:48:11;8.60;;;4.20;;
56269;SDS011;42176;43.240;27.880;2023-03-01T01:50:39;6.13;;;3.83;;
56269;SDS011;42176;43.240;27.880;2023-03-01T01:53:06;5.25;;;3.42;;
56269;SDS011;42176;43.240;27.880;2023-03-01T01:55:38;7.65;;;4.07;;
56269;SDS011;42176;43.240;27.880;2023-03-01T01:58:08;5.70;;;3.95;;
56269;SDS011;42176;43.240;27.880;2023-03-01T02:00:36;7.40;;;4.55;;
56269;SDS011;42176;43.240;27.880;2023-03-01T02:03:13;6.05;;;3.53;;
56269;SDS011;42176;43.240;27.880;2023-03-01T02:05:53;11.43;;;6.38;;
56269;SDS011;42176;43.240;27.880;2023-03-01T02:08:25;8.43;;;4.53;;
56269;SDS011;42176;43.240;27.880;2023-03-01T02:10:55;5.47;;;3.30;;
56269;SDS011;42176;43.240;27.880;2023-03-01T02:13:22;9.45;;;3.67;;
56269;SDS011;42176;43.240;27.880;2023-03-01T02:15:48;9.15;;;5.22;;
56269;SDS011;42176;43.240;27.880;2023-03-01T02:18:16;8.90;;;4.78;;
56269;SDS011;42176;43.240;27.880;2023-03-01T02:23:18;13.45;;;4.25;;
56269;SDS011;42176;43.240;27.880;2023-03-01T02:28:39;8.13;;;5.40;;
56269;SDS011;42176;43.240;27.880;2023-03-01T02:31:08;10.00;;;4.38;;
56269;SDS011;42176;43.240;27.880;2023-03-01T02:33:53;6.82;;;4.43;;
56269;SDS011;42176;43.240;27.880;2023-03-01T02:36:20;15.38;;;6.57;;
56269;SDS011;42176;43.240;27.880;2023-03-01T02:38:49;10.80;;;5.43;;
56269;SDS011;42176;43.240;27.880;2023-03-01T02:41:19;12.38;;;6.95;;
56269;SDS011;42176;43.240;27.880;2023-03-01T02:43:46;16.30;;;8.07;;
56269;SDS011;42176;43.240;27.880;2023-03-01T02:46:19;11.07;;;6.05;;
56269;SDS011;42176;43.240;27.880;2023-03-01T02:48:48;13.93;;;5.22;;
56269;SDS011;42176;43.240;27.880;2023-03-01T02:56:39;11.95;;;7.10;;
56269;SDS011;42176;43.240;27.880;2023-03-01T02:59:05;18.20;;;7.38;;
56269;SDS011;42176;43.240;27.880;2023-03-01T03:01:31;17.55;;;9.52;;
56269;SDS011;42176;43.240;27.880;2023-03-01T03:04:06;18.17;;;4.60;;
56269;SDS011;42176;43.240;27.880;2023-03-01T03:06:42;13.90;;;6.38;;
56269;SDS011;42176;43.240;27.880;2023-03-01T03:09:10;17.05;;;5.72;;
56269;SDS011;42176;43.240;27.880;2023-03-01T03:11:37;10.68;;;6.10;;
56269;SDS011;42176;43.240;27.880;2023-03-01T03:14:04;12.63;;;6.22;;
56269;SDS011;42176;43.240;27.880;2023-03-01T03:16:30;14.52;;;8.40;;
56269;SDS011;42176;43.240;27.880;2023-03-01T03:18:56;15.98;;;8.90;;
56269;SDS011;42176;43.240;27.880;2023-03-01T03:21:30;16.40;;;9.60;;
56269;SDS011;42176;43.240;27.880;2023-03-01T03:23:56;15.10;;;6.70;;
56269;SDS011;42176;43.240;27.880;2023-03-01T03:26:22;19.17;;;7.22;;
56269;SDS011;42176;43.240;27.880;2023-03-01T03:28:48;17.52;;;8.65;;
56269;SDS011;42176;43.240;27.880;2023-03-01T03:31:13;8.52;;;5.18;;
56269;SDS011;42176;43.240;27.880;2023-03-01T03:33:39;18.25;;;8.45;;
56269;SDS011;42176;43.240;27.880;2023-03-01T03:36:04;14.82;;;7.50;;
56269;SDS011;42176;43.240;27.880;2023-03-01T03:38:30;14.52;;;8.73;;
56269;SDS011;42176;43.240;27.880;2023-03-01T03:40:59;9.75;;;5.80;;
56269;SDS011;42176;43.240;27.880;2023-03-01T03:43:27;15.00;;;7.72;;
56269;SDS011;42176;43.240;27.880;2023-03-01T03:45:53;23.95;;;11.05;;
56269;SDS011;42176;43.240;27.880;2023-03-01T03:48:38;12.80;;;5.47;;
56269;SDS011;42176;43.240;27.880;2023-03-01T03:51:06;12.48;;;6.55;;
56269;SDS011;42176;43.240;27.880;2023-03-01T03:53:32;14.40;;;6.80;;
56269;SDS011;42176;43.240;27.880;2023-03-01T03:55:58;11.48;;;5.03;;
56269;SDS011;42176;43.240;27.880;2023-03-01T03:58:24;12.38;;;7.10;;
56269;SDS011;42176;43.240;27.880;2023-03-01T04:00:51;16.70;;;9.20;;
56269;SDS011;42176;43.240;27.880;2023-03-01T04:03:21;11.70;;;6.57;;
56269;SDS011;42176;43.240;27.880;2023-03-01T04:05:47;12.75;;;6.88;;
56269;SDS011;42176;43.240;27.880;2023-03-01T04:08:15;17.63;;;6.97;;
56269;SDS011;42176;43.240;27.880;2023-03-01T04:10:45;12.02;;;6.50;;
56269;SDS011;42176;43.240;27.880;2023-03-01T04:13:14;17.27;;;7.45;;
56269;SDS011;42176;43.240;27.880;2023-03-01T04:15:44;13.07;;;6.67;;
56269;SDS011;42176;43.240;27.880;2023-03-01T04:18:14;12.95;;;7.20;;
56269;SDS011;42176;43.240;27.880;2023-03-01T04:20:40;16.90;;;8.27;;
56269;SDS011;42176;43.240;27.880;2023-03-01T04:23:08;21.55;;;7.70;;
56269;SDS011;42176;43.240;27.880;2023-03-01T04:25:37;14.70;;;7.65;;
56269;SDS011;42176;43.240;27.880;2023-03-01T04:28:03;16.90;;;6.47;;
56269;SDS011;42176;43.240;27.880;2023-03-01T04:30:29;22.92;;;10.52;;
56269;SDS011;42176;43.240;27.880;2023-03-01T04:32:54;23.13;;;10.40;;
56269;SDS011;42176;43.240;27.880;2023-03-01T04:35:20;15.05;;;5.85;;
56269;SDS011;42176;43.240;27.880;2023-03-01T04:37:45;17.92;;;9.57;;
56269;SDS011;42176;43.240;27.880;2023-03-01T04:40:11;22.90;;;8.93;;
56269;SDS011;42176;43.240;27.880;2023-03-01T04:42:41;19.63;;;9.25;;
56269;SDS011;42176;43.240;27.880;2023-03-01T04:45:07;11.55;;;6.00;;
56269;SDS011;42176;43.240;27.880;2023-03-01T04:47:42;24.17;;;11.25;;
56269;SDS011;42176;43.240;27.880;2023-03-01T04:50:10;25.65;;;12.25;;
56269;SDS011;42176;43.240;27.880;2023-03-01T04:52:37;20.63;;;9.85;;
56269;SDS011;42176;43.240;27.880;2023-03-01T04:55:03;16.38;;;7.88;;
56269;SDS011;42176;43.240;27.880;2023-03-01T04:57:29;16.63;;;8.05;;
56269;SDS011;42176;43.240;27.880;2023-03-01T04:59:55;19.90;;;10.75;;
56269;SDS011;42176;43.240;27.880;2023-03-01T05:02:21;8.57;;;4.28;;
56269;SDS011;42176;43.240;27.880;2023-03-01T05:04:46;17.60;;;8.27;;
56269;SDS011;42176;43.240;27.880;2023-03-01T05:07:11;16.65;;;7.47;;
56269;SDS011;42176;43.240;27.880;2023-03-01T05:09:38;16.88;;;8.68;;
56269;SDS011;42176;43.240;27.880;2023-03-01T05:12:04;16.25;;;7.68;;
56269;SDS011;42176;43.240;27.880;2023-03-01T05:14:30;16.88;;;8.52;;
56269;SDS011;42176;43.240;27.880;2023-03-01T05:16:55;18.00;;;7.90;;
56269;SDS011;42176;43.240;27.880;2023-03-01T05:19:29;13.30;;;7.15;;
56269;SDS011;42176;43.240;27.880;2023-03-01T05:21:56;23.15;;;12.20;;
56269;SDS011;42176;43.240;27.880;2023-03-01T05:24:29;19.80;;;9.27;;
56269;SDS011;42176;43.240;27.880;2023-03-01T05:26:56;20.38;;;7.72;;
56269;SDS011;42176;43.240;27.880;2023-03-01T05:29:22;18.60;;;7.88;;
56269;SDS011;42176;43.240;27.880;2023-03-01T05:31:52;13.30;;;6.70;;
56269;SDS011;42176;43.240;27.880;2023-03-01T05:34:31;12.35;;;7.55;;
56269;SDS011;42176;43.240;27.880;2023-03-01T05:36:58;12.70;;;6.75;;
56269;SDS011;42176;43.240;27.880;2023-03-01T05:39:24;16.23;;;7.57;;
56269;SDS011;42176;43.240;27.880;2023-03-01T05:41:52;14.88;;;7.70;;
56269;SDS011;42176;43.240;27.880;2023-03-01T05:44:18;22.33;;;11.73;;
56269;SDS011;42176;43.240;27.880;2023-03-01T05:46:44;19.42;;;11.10;;
56269;SDS011;42176;43.240;27.880;2023-03-01T05:49:10;10.80;;;6.57;;
56269;SDS011;42176;43.240;27.880;2023-03-01T05:51:36;19.30;;;7.70;;
56269;SDS011;42176;43.240;27.880;2023-03-01T05:54:01;14.82;;;8.55;;
56269;SDS011;42176;43.240;27.880;2023-03-01T05:56:27;16.08;;;7.63;;
56269;SDS011;42176;43.240;27.880;2023-03-01T05:58:52;21.10;;;11.00;;
56269;SDS011;42176;43.240;27.880;2023-03-01T06:01:17;14.60;;;7.25;;
56269;SDS011;42176;43.240;27.880;2023-03-01T06:03:43;24.90;;;9.10;;
56269;SDS011;42176;43.240;27.880;2023-03-01T06:06:09;24.63;;;9.27;;
56269;SDS011;42176;43.240;27.880;2023-03-01T06:08:35;19.65;;;9.95;;
56269;SDS011;42176;43.240;27.880;2023-03-01T06:11:00;19.40;;;9.77;;
56269;SDS011;42176;43.240;27.880;2023-03-01T06:13:26;13.65;;;7.05;;
56269;SDS011;42176;43.240;27.880;2023-03-01T06:15:51;15.85;;;7.68;;
56269;SDS011;42176;43.240;27.880;2023-03-01T06:18:17;21.98;;;11.15;;
56269;SDS011;42176;43.240;27.880;2023-03-01T06:20:42;23.77;;;12.20;;
56269;SDS011;42176;43.240;27.880;2023-03-01T06:23:08;20.20;;;8.32;;
56269;SDS011;42176;43.240;27.880;2023-03-01T06:25:33;10.02;;;6.00;;
56269;SDS011;42176;43.240;27.880;2023-03-01T06:27:58;17.83;;;7.70;;
56269;SDS011;42176;43.240;27.880;2023-03-01T06:30:25;21.65;;;9.23;;
56269;SDS011;42176;43.240;27.880;2023-03-01T06:32:51;8.55;;;5.47;;
56269;SDS011;42176;43.240;27.880;2023-03-01T06:35:18;14.25;;;7.00;;
56269;SDS011;42176;43.240;27.880;2023-03-01T06:37:44;17.80;;;7.22;;
56269;SDS011;42176;43.240;27.880;2023-03-01T06:40:11;16.98;;;8.82;;
56269;SDS011;42176;43.240;27.880;2023-03-01T06:42:39;22.52;;;11.65;;
56269;SDS011;42176;43.240;27.880;2023-03-01T06:45:08;14.90;;;5.57;;
56269;SDS011;42176;43.240;27.880;2023-03-01T06:47:34;13.65;;;7.05;;
56269;SDS011;42176;43.240;27.880;2023-03-01T06:50:00;13.60;;;7.75;;
56269;SDS011;42176;43.240;27.880;2023-03-01T06:52:26;13.65;;;7.28;;
56269;SDS011;42176;43.240;27.880;2023-03-01T06:54:52;12.48;;;6.28;;
56269;SDS011;42176;43.240;27.880;2023-03-01T06:57:18;19.33;;;7.03;;
56269;SDS011;42176;43.240;27.880;2023-03-01T06:59:43;15.75;;;8.00;;
56269;SDS011;42176;43.240;27.880;2023-03-01T07:02:10;18.27;;;9.90;;
56269;SDS011;42176;43.240;27.880;2023-03-01T07:04:36;20.33;;;10.65;;
56269;SDS011;42176;43.240;27.880;2023-03-01T07:07:02;12.82;;;6.78;;
56269;SDS011;42176;43.240;27.880;2023-03-01T07:09:27;19.08;;;8.88;;
56269;SDS011;42176;43.240;27.880;2023-03-01T07:11:53;14.88;;;6.25;;
56269;SDS011;42176;43.240;27.880;2023-03-01T07:14:19;26.00;;;12.70;;
56269;SDS011;42176;43.240;27.880;2023-03-01T07:16:45;21.45;;;11.55;;
56269;SDS011;42176;43.240;27.880;2023-03-01T07:19:10;20.77;;;9.52;;
56269;SDS011;42176;43.240;27.880;2023-03-01T07:21:36;11.73;;;6.10;;
56269;SDS011;42176;43.240;27.880;2023-03-01T07:24:04;10.95;;;5.70;;
56269;SDS011;42176;43.240;27.880;2023-03-01T07:26:31;20.20;;;9.95;;
56269;SDS011;42176;43.240;27.880;2023-03-01T07:28:58;18.08;;;8.68;;
56269;SDS011;42176;43.240;27.880;2023-03-01T07:31:25;13.90;;;7.20;;
56269;SDS011;42176;43.240;27.880;2023-03-01T07:33:52;24.75;;;9.93;;
56269;SDS011;42176;43.240;27.880;2023-03-01T07:36:18;41.13;;;17.90;;
56269;SDS011;42176;43.240;27.880;2023-03-01T07:38:44;36.25;;;17.02;;
56269;SDS011;42176;43.240;27.880;2023-03-01T07:41:09;14.80;;;6.63;;
56269;SDS011;42176;43.240;27.880;2023-03-01T07:43:34;14.23;;;6.43;;
56269;SDS011;42176;43.240;27.880;2023-03-01T07:46:00;18.17;;;7.82;;
56269;SDS011;42176;43.240;27.880;2023-03-01T07:48:27;19.95;;;8.45;;
56269;SDS011;42176;43.240;27.880;2023-03-01T07:50:53;13.57;;;5.88;;
56269;SDS011;42176;43.240;27.880;2023-03-01T07:53:18;26.15;;;12.90;;
56269;SDS011;42176;43.240;27.880;2023-03-01T07:55:44;26.92;;;8.25;;
56269;SDS011;42176;43.240;27.880;2023-03-01T07:58:09;16.58;;;7.47;;
56269;SDS011;42176;43.240;27.880;2023-03-01T08:00:35;22.02;;;7.53;;
56269;SDS011;42176;43.240;27.880;2023-03-01T08:03:00;26.15;;;11.82;;
56269;SDS011;42176;43.240;27.880;2023-03-01T08:05:27;22.48;;;10.95;;
56269;SDS011;42176;43.240;27.880;2023-03-01T08:07:53;9.45;;;5.80;;
56269;SDS011;42176;43.240;27.880;2023-03-01T08:10:19;22.13;;;9.10;;
56269;SDS011;42176;43.240;27.880;2023-03-01T08:12:44;23.05;;;8.63;;
56269;SDS011;42176;43.240;27.880;2023-03-01T08:15:10;18.50;;;8.02;;
56269;SDS011;42176;43.240;27.880;2023-03-01T08:17:35;17.63;;;9.90;;
56269;SDS011;42176;43.240;27.880;2023-03-01T08:20:01;13.10;;;6.82;;
56269;SDS011;42176;43.240;27.880;2023-03-01T08:22:28;19.92;;;7.90;;
56269;SDS011;42176;43.240;27.880;2023-03-01T08:24:53;19.02;;;8.82;;
56269;SDS011;42176;43.240;27.880;2023-03-01T08:27:20;16.35;;;9.13;;
56269;SDS011;42176;43.240;27.880;2023-03-01T08:29:46;15.95;;;7.40;;
56269;SDS011;42176;43.240;27.880;2023-03-01T08:32:11;14.57;;;7.35;;
56269;SDS011;42176;43.240;27.880;2023-03-01T08:34:37;13.57;;;7.07;;
56269;SDS011;42176;43.240;27.880;2023-03-01T08:37:02;13.07;;;6.72;;
56269;SDS011;42176;43.240;27.880;2023-03-01T08:39:28;17.70;;;9.20;;
56269;SDS011;42176;43.240;27.880;2023-03-01T08:41:53;19.88;;;10.55;;
56269;SDS011;42176;43.240;27.880;2023-03-01T08:44:19;17.95;;;7.97;;
56269;SDS011;42176;43.240;27.880;2023-03-01T08:46:46;23.45;;;9.45;;
56269;SDS011;42176;43.240;27.880;2023-03-01T08:49:13;17.63;;;9.02;;
56269;SDS011;42176;43.240;27.880;2023-03-01T08:51:41;18.98;;;8.40;;
56269;SDS011;42176;43.240;27.880;2023-03-01T08:54:11;13.45;;;7.28;;
56269;SDS011;42176;43.240;27.880;2023-03-01T08:56:40;25.63;;;8.77;;
56269;SDS011;42176;43.240;27.880;2023-03-01T08:59:05;17.10;;;7.22;;
56269;SDS011;42176;43.240;27.880;2023-03-01T09:01:31;17.27;;;7.90;;
56269;SDS011;42176;43.240;27.880;2023-03-01T09:03:57;16.50;;;9.55;;
56269;SDS011;42176;43.240;27.880;2023-03-01T09:06:22;23.00;;;10.38;;
56269;SDS011;42176;43.240;27.880;2023-03-01T09:08:49;19.40;;;8.30;;
56269;SDS011;42176;43.240;27.880;2023-03-01T09:11:16;20.45;;;9.18;;
56269;SDS011;42176;43.240;27.880;2023-03-01T09:13:44;16.50;;;8.32;;
56269;SDS011;42176;43.240;27.880;2023-03-01T09:16:12;16.08;;;8.48;;
56269;SDS011;42176;43.240;27.880;2023-03-01T09:18:39;14.23;;;8.15;;
56269;SDS011;42176;43.240;27.880;2023-03-01T09:23:32;19.70;;;8.35;;
56269;SDS011;42176;43.240;27.880;2023-03-01T09:26:03;17.17;;;9.43;;
56269;SDS011;42176;43.240;27.880;2023-03-01T09:28:30;21.35;;;10.32;;
56269;SDS011;42176;43.240;27.880;2023-03-01T09:30:59;14.98;;;6.95;;
56269;SDS011;42176;43.240;27.880;2023-03-01T09:33:25;18.70;;;9.52;;
56269;SDS011;42176;43.240;27.880;2023-03-01T09:35:55;24.27;;;8.65;;
56269;SDS011;42176;43.240;27.880;2023-03-01T09:38:22;18.85;;;8.85;;
56269;SDS011;42176;43.240;27.880;2023-03-01T09:40:47;17.98;;;7.25;;
56269;SDS011;42176;43.240;27.880;2023-03-01T09:43:15;14.52;;;7.38;;
56269;SDS011;42176;43.240;27.880;2023-03-01T09:45:48;16.30;;;8.90;;
56269;SDS011;42176;43.240;27.880;2023-03-01T09:48:19;22.92;;;11.88;;
56269;SDS011;42176;43.240;27.880;2023-03-01T09:50:49;21.33;;;11.95;;
56269;SDS011;42176;43.240;27.880;2023-03-01T09:53:17;17.40;;;8.38;;
56269;SDS011;42176;43.240;27.880;2023-03-01T09:55:55;11.00;;;6.57;;
56269;SDS011;42176;43.240;27.880;2023-03-01T10:00:56;24.10;;;11.88;;
56269;SDS011;42176;43.240;27.880;2023-03-01T10:06:05;11.35;;;5.20;;
56269;SDS011;42176;43.240;27.880;2023-03-01T10:11:35;10.85;;;4.68;;
56269;SDS011;42176;43.240;27.880;2023-03-01T10:16:43;14.45;;;6.95;;
56269;SDS011;42176;43.240;27.880;2023-03-01T10:19:18;15.57;;;6.45;;
56269;SDS011;42176;43.240;27.880;2023-03-01T10:21:49;19.95;;;8.32;;
56269;SDS011;42176;43.240;27.880;2023-03-01T10:24:18;10.65;;;6.18;;
56269;SDS011;42176;43.240;27.880;2023-03-01T10:29:26;12.70;;;5.88;;
56269;SDS011;42176;43.240;27.880;2023-03-01T10:32:09;17.40;;;7.47;;
56269;SDS011;42176;43.240;27.880;2023-03-01T10:34:36;23.70;;;10.50;;
56269;SDS011;42176;43.240;27.880;2023-03-01T10:37:20;28.83;;;10.48;;
56269;SDS011;42176;43.240;27.880;2023-03-01T10:39:57;11.07;;;5.28;;
56269;SDS011;42176;43.240;27.880;2023-03-01T10:42:34;14.70;;;6.90;;
56269;SDS011;42176;43.240;27.880;2023-03-01T10:48:02;11.70;;;7.35;;
56269;SDS011;42176;43.240;27.880;2023-03-01T10:51:05;16.60;;;7.15;;
56269;SDS011;42176;43.240;27.880;2023-03-01T10:53:33;12.88;;;5.03;;
56269;SDS011;42176;43.240;27.880;2023-03-01T10:56:13;17.73;;;6.78;;
56269;SDS011;42176;43.240;27.880;2023-03-01T10:58:41;15.57;;;6.57;;
56269;SDS011;42176;43.240;27.880;2023-03-01T11:01:26;21.63;;;7.03;;
56269;SDS011;42176;43.240;27.880;2023-03-01T11:04:09;13.55;;;7.35;;
56269;SDS011;42176;43.240;27.880;2023-03-01T11:12:13;11.40;;;5.22;;
56269;SDS011;42176;43.240;27.880;2023-03-01T11:14:53;16.75;;;8.45;;
56269;SDS011;42176;43.240;27.880;2023-03-01T11:17:29;9.40;;;6.05;;
56269;SDS011;42176;43.240;27.880;2023-03-01T11:19:59;13.23;;;4.72;;
56269;SDS011;42176;43.240;27.880;2023-03-01T11:22:26;12.25;;;7.25;;
56269;SDS011;42176;43.240;27.880;2023-03-01T11:24:53;8.75;;;5.68;;
56269;SDS011;42176;43.240;27.880;2023-03-01T11:27:32;11.00;;;6.18;;
56269;SDS011;42176;43.240;27.880;2023-03-01T11:30:05;12.52;;;4.68;;
56269;SDS011;42176;43.240;27.880;2023-03-01T11:32:42;12.85;;;5.25;;
56269;SDS011;42176;43.240;27.880;2023-03-01T11:35:22;12.13;;;5.75;;
56269;SDS011;42176;43.240;27.880;2023-03-01T11:51:18;10.52;;;5.55;;
56269;SDS011;42176;43.240;27.880;2023-03-01T11:54:43;8.15;;;5.25;;
56269;SDS011;42176;43.240;27.880;2023-03-01T12:02:40;8.18;;;5.05;;
56269;SDS011;42176;43.240;27.880;2023-03-01T12:08:17;11.23;;;5.35;;
56269;SDS011;42176;43.240;27.880;2023-03-01T12:16:14;7.43;;;4.53;;
56269;SDS011;42176;43.240;27.880;2023-03-01T12:24:33;8.52;;;5.63;;
56269;SDS011;42176;43.240;27.880;2023-03-01T12:27:11;14.55;;;7.13;;
56269;SDS011;42176;43.240;27.880;2023-03-01T12:32:28;13.30;;;5.28;;
56269;SDS011;42176;43.240;27.880;2023-03-01T12:41:21;9.57;;;5.72;;
56269;SDS011;42176;43.240;27.880;2023-03-01T12:44:09;8.35;;;4.93;;
56269;SDS011;42176;43.240;27.880;2023-03-01T12:49:09;6.32;;;4.53;;
56269;SDS011;42176;43.240;27.880;2023-03-01T12:51:42;10.40;;;6.45;;
56269;SDS011;42176;43.240;27.880;2023-03-01T12:54:16;5.97;;;3.08;;
56269;SDS011;42176;43.240;27.880;2023-03-01T12:56:45;10.15;;;5.72;;
56269;SDS011;42176;43.240;27.880;2023-03-01T13:04:45;7.88;;;4.45;;
56269;SDS011;42176;43.240;27.880;2023-03-01T13:18:04;9.13;;;2.90;;
56269;SDS011;42176;43.240;27.880;2023-03-01T13:20:51;11.07;;;4.75;;
56269;SDS011;42176;43.240;27.880;2023-03-01T13:33:45;3.67;;;2.78;;
56269;SDS011;42176;43.240;27.880;2023-03-01T13:38:55;8.90;;;3.58;;
56269;SDS011;42176;43.240;27.880;2023-03-01T13:46:56;7.55;;;4.05;;
56269;SDS011;42176;43.240;27.880;2023-03-01T13:49:27;7.55;;;4.50;;
56269;SDS011;42176;43.240;27.880;2023-03-01T13:51:58;8.50;;;4.95;;
56269;SDS011;42176;43.240;27.880;2023-03-01T13:54:33;13.23;;;6.30;;
56269;SDS011;42176;43.240;27.880;2023-03-01T13:56:59;7.35;;;4.82;;
56269;SDS011;42176;43.240;27.880;2023-03-01T13:59:26;10.48;;;5.28;;
56269;SDS011;42176;43.240;27.880;2023-03-01T14:02:01;9.55;;;4.97;;
56269;SDS011;42176;43.240;27.880;2023-03-01T14:04:27;10.13;;;6.35;;
56269;SDS011;42176;43.240;27.880;2023-03-01T14:09:58;10.57;;;6.65;;
56269;SDS011;42176;43.240;27.880;2023-03-01T14:15:05;12.48;;;5.32;;
56269;SDS011;42176;43.240;27.880;2023-03-01T14:20:22;7.07;;;4.22;;
56269;SDS011;42176;43.240;27.880;2023-03-01T14:22:53;10.73;;;5.35;;
56269;SDS011;42176;43.240;27.880;2023-03-01T14:25:23;9.10;;;5.05;;
56269;SDS011;42176;43.240;27.880;2023-03-01T14:27:54;14.00;;;7.53;;
56269;SDS011;42176;43.240;27.880;2023-03-01T14:30:40;11.23;;;5.28;;
56269;SDS011;42176;43.240;27.880;2023-03-01T14:33:24;12.35;;;4.90;;
56269;SDS011;42176;43.240;27.880;2023-03-01T14:36:00;14.20;;;6.35;;
56269;SDS011;42176;43.240;27.880;2023-03-01T14:38:37;12.05;;;6.38;;
56269;SDS011;42176;43.240;27.880;2023-03-01T14:41:14;11.73;;;6.57;;
56269;SDS011;42176;43.240;27.880;2023-03-01T14:43:50;19.60;;;8.75;;
56269;SDS011;42176;43.240;27.880;2023-03-01T14:48:48;10.63;;;5.93;;
56269;SDS011;42176;43.240;27.880;2023-03-01T14:51:15;11.90;;;5.40;;
56269;SDS011;42176;43.240;27.880;2023-03-01T14:53:41;13.77;;;6.20;;
56269;SDS011;42176;43.240;27.880;2023-03-01T14:56:12;13.70;;;7.97;;
56269;SDS011;42176;43.240;27.880;2023-03-01T14:58:42;12.63;;;8.05;;
56269;SDS011;42176;43.240;27.880;2023-03-01T15:01:10;12.77;;;6.00;;
56269;SDS011;42176;43.240;27.880;2023-03-01T15:03:41;13.85;;;6.95;;
56269;SDS011;42176;43.240;27.880;2023-03-01T15:06:09;15.63;;;9.38;;
56269;SDS011;42176;43.240;27.880;2023-03-01T15:08:37;14.15;;;7.40;;
56269;SDS011;42176;43.240;27.880;2023-03-01T15:13:38;22.35;;;10.48;;
56269;SDS011;42176;43.240;27.880;2023-03-01T15:19:06;13.95;;;6.32;;
56269;SDS011;42176;43.240;27.880;2023-03-01T15:24:20;16.20;;;7.15;;
56269;SDS011;42176;43.240;27.880;2023-03-01T15:26:53;20.38;;;8.45;;
56269;SDS011;42176;43.240;27.880;2023-03-01T15:29:26;15.85;;;6.43;;
56269;SDS011;42176;43.240;27.880;2023-03-01T15:37:02;11.85;;;6.75;;
56269;SDS011;42176;43.240;27.880;2023-03-01T15:39:34;14.30;;;7.07;;
56269;SDS011;42176;43.240;27.880;2023-03-01T15:42:04;14.70;;;6.88;;
56269;SDS011;42176;43.240;27.880;2023-03-01T15:44:35;19.52;;;8.15;;
56269;SDS011;42176;43.240;27.880;2023-03-01T15:47:04;21.33;;;8.25;;
56269;SDS011;42176;43.240;27.880;2023-03-01T15:50:04;20.42;;;8.38;;
56269;SDS011;42176;43.240;27.880;2023-03-01T15:52:39;18.98;;;10.23;;
56269;SDS011;42176;43.240;27.880;2023-03-01T15:55:07;15.95;;;8.35;;
56269;SDS011;42176;43.240;27.880;2023-03-01T15:57:40;17.13;;;9.27;;
56269;SDS011;42176;43.240;27.880;2023-03-01T16:00:08;13.40;;;7.78;;
56269;SDS011;42176;43.240;27.880;2023-03-01T16:02:38;17.13;;;8.27;;
56269;SDS011;42176;43.240;27.880;2023-03-01T16:05:05;25.63;;;10.73;;
56269;SDS011;42176;43.240;27.880;2023-03-01T16:07:39;16.75;;;7.60;;
56269;SDS011;42176;43.240;27.880;2023-03-01T16:10:04;15.05;;;7.63;;
56269;SDS011;42176;43.240;27.880;2023-03-01T16:12:30;15.73;;;6.45;;
56269;SDS011;42176;43.240;27.880;2023-03-01T16:14:56;19.63;;;9.90;;
56269;SDS011;42176;43.240;27.880;2023-03-01T16:17:22;15.95;;;7.68;;
56269;SDS011;42176;43.240;27.880;2023-03-01T16:19:48;17.08;;;8.05;;
56269;SDS011;42176;43.240;27.880;2023-03-01T16:22:13;15.15;;;8.43;;
56269;SDS011;42176;43.240;27.880;2023-03-01T16:24:39;15.27;;;7.30;;
56269;SDS011;42176;43.240;27.880;2023-03-01T16:27:05;19.55;;;9.35;;
56269;SDS011;42176;43.240;27.880;2023-03-01T16:29:32;19.17;;;8.82;;
56269;SDS011;42176;43.240;27.880;2023-03-01T16:32:00;22.17;;;10.85;;
56269;SDS011;42176;43.240;27.880;2023-03-01T16:34:26;22.80;;;12.20;;
56269;SDS011;42176;43.240;27.880;2023-03-01T16:36:51;18.65;;;11.65;;
56269;SDS011;42176;43.240;27.880;2023-03-01T16:39:16;21.23;;;9.00;;
56269;SDS011;42176;43.240;27.880;2023-03-01T16:41:42;17.38;;;8.98;;
56269;SDS011;42176;43.240;27.880;2023-03-01T16:44:07;25.52;;;10.07;;
56269;SDS011;42176;43.240;27.880;2023-03-01T16:46:33;24.20;;;12.75;;
56269;SDS011;42176;43.240;27.880;2023-03-01T16:48:58;11.85;;;7.22;;
56269;SDS011;42176;43.240;27.880;2023-03-01T16:51:24;17.90;;;8.32;;